Time,TemperatureF,DewpointF,PressureIn,WindDirection,WindDirectionDegrees,WindSpeedMPH,WindSpeedGustMPH,Humidity,HourlyPrecipIn,Conditions,Clouds,dailyrainin,SolarRadiationWatts/m^2,SoftwareType,DateUTC
2013-03-01 00:00:00,33.8,30.6,29.82,NW,325,7.0,13.0,88,0.00,,---,0.06,0.00,VWS V14.00,2013-03-01 05:00:00,
2013-03-01 00:05:00,33.7,30.5,29.82,WNW,300,7.0,13.0,88,0.00,,---,0.00,0.00,VWS V14.00,2013-03-01 05:05:00,
2013-03-01 00:06:00,33.7,30.5,29.82,NNW,333,6.0,13.0,88,0.00,,---,0.00,0.00,VWS V14.00,2013-03-01 05:06:00,
2013-03-01 00:11:00,33.7,30.5,29.82,West,278,7.0,13.0,88,0.00,,---,0.00,0.00,VWS V14.00,2013-03-01 05:11:00,
2013-03-01 00:16:00,33.6,30.4,29.82,WNW,287,6.0,13.0,88,0.00,,---,0.00,0.00,VWS V14.00,2013-03-01 05:16:00,
2013-03-01 00:21:00,33.5,30.6,29.82,WNW,290,4.0,13.0,89,0.00,,---,0.00,0.00,VWS V14.00,2013-03-01 05:21:00,
2013-03-01 00:26:00,33.3,30.4,29.83,NW,304,5.0,13.0,89,0.00,,---,0.00,0.00,VWS V14.00,2013-03-01 05:26:00,
2013-03-01 00:30:00,32.4,29.2,29.84,WNW,284,5.0,14.0,88,0.00,,---,0.00,0.00,VWS V14.00,2013-03-01 05:30:00,
2013-03-01 00:31:00,33.0,30.1,29.83,WNW,298,8.0,13.0,89,0.00,,---,0.00,0.00,VWS V14.00,2013-03-01 05:31:00,
2013-03-01 00:36:00,32.8,29.9,29.83,WNW,285,6.0,9.0,89,0.00,,---,0.00,0.00,VWS V14.00,2013-03-01 05:36:00,
2013-03-01 00:41:00,32.7,30.1,29.83,WNW,288,4.0,9.0,90,0.00,,---,0.00,0.00,VWS V14.00,2013-03-01 05:41:00,
2013-03-01 00:46:00,32.7,30.1,29.83,NW,315,5.0,9.0,90,0.00,,---,0.00,0.00,VWS V14.00,2013-03-01 05:46:00,
2013-03-01 00:51:00,32.7,29.8,29.84,WNW,295,4.0,12.0,89,0.00,,---,0.00,0.00,VWS V14.00,2013-03-01 05:51:00,
2013-03-01 00:56:00,32.7,29.8,29.84,WNW,299,5.0,12.0,89,0.00,,---,0.00,0.00,VWS V14.00,2013-03-01 05:56:00,
2013-03-01 01:00:00,32.3,29.1,29.84,WNW,285,5.0,11.0,88,0.00,,---,0.00,0.00,VWS V14.00,2013-03-01 06:00:00,
2013-03-01 01:01:00,32.6,29.7,29.84,NNW,330,2.0,12.0,89,0.00,,---,0.00,0.00,VWS V14.00,2013-03-01 06:01:00,
2013-03-01 01:06:00,32.6,29.5,29.84,West,277,6.0,8.0,88,0.00,,---,0.00,0.00,VWS V14.00,2013-03-01 06:06:00,
2013-03-01 01:11:00,32.5,29.4,29.84,NW,306,6.0,14.0,88,0.00,,---,0.00,0.00,VWS V14.00,2013-03-01 06:11:00,
2013-03-01 01:16:00,32.5,29.4,29.84,WNW,293,6.0,14.0,88,0.00,,---,0.00,0.00,VWS V14.00,2013-03-01 06:16:00,
2013-03-01 01:21:00,32.5,29.4,29.84,NW,313,6.0,14.0,88,0.00,,---,0.00,0.00,VWS V14.00,2013-03-01 06:21:00,
2013-03-01 01:26:00,32.5,29.4,29.84,NNW,330,5.0,14.0,88,0.00,,---,0.00,0.00,VWS V14.00,2013-03-01 06:26:00,
2013-03-01 01:30:00,32.1,28.1,29.84,NW,309,0.0,13.0,85,0.00,,---,0.00,0.00,VWS V14.00,2013-03-01 06:30:00,
2013-03-01 01:31:00,32.4,29.2,29.84,WNW,284,5.0,14.0,88,0.00,,---,0.00,0.00,VWS V14.00,2013-03-01 06:31:00,
2013-03-01 01:36:00,32.4,29.2,29.84,WNW,300,4.0,8.0,88,0.00,,---,0.00,0.00,VWS V14.00,2013-03-01 06:36:00,
2013-03-01 01:41:00,32.4,29.2,29.84,WNW,300,5.0,8.0,88,0.00,,---,0.00,0.00,VWS V14.00,2013-03-01 06:41:00,
2013-03-01 01:46:00,32.4,29.2,29.84,WNW,292,4.0,8.0,88,0.00,,---,0.00,0.00,VWS V14.00,2013-03-01 06:46:00,
2013-03-01 01:51:00,32.4,29.2,29.84,WNW,297,7.0,11.0,88,0.00,,---,0.00,0.00,VWS V14.00,2013-03-01 06:51:00,
2013-03-01 01:56:00,32.3,29.1,29.84,WNW,296,5.0,11.0,88,0.00,,---,0.00,0.00,VWS V14.00,2013-03-01 06:56:00,
2013-03-01 02:00:00,32.0,28.3,29.85,WNW,302,5.0,11.0,86,0.00,,---,0.00,0.00,VWS V14.00,2013-03-01 07:00:00,
2013-03-01 02:01:00,32.3,29.1,29.85,WNW,289,5.0,5.0,88,0.00,,---,0.00,0.00,VWS V14.00,2013-03-01 07:01:00,
2013-03-01 02:06:00,32.3,29.1,29.85,NW,306,9.0,12.0,88,0.00,,---,0.00,0.00,VWS V14.00,2013-03-01 07:06:00,
2013-03-01 02:11:00,32.3,29.1,29.85,NW,315,2.0,12.0,88,0.00,,---,0.00,0.00,VWS V14.00,2013-03-01 07:11:00,
2013-03-01 02:16:00,32.2,28.8,29.85,WNW,298,12.0,13.0,87,0.00,,---,0.00,0.00,VWS V14.00,2013-03-01 07:16:00,
2013-03-01 02:21:00,32.2,28.5,29.84,NNW,338,8.0,13.0,86,0.00,,---,0.00,0.00,VWS V14.00,2013-03-01 07:21:00,
2013-03-01 02:26:00,32.2,28.2,29.85,North,360,2.0,13.0,85,0.00,,---,0.00,0.00,VWS V14.00,2013-03-01 07:26:00,
2013-03-01 02:30:00,31.9,28.5,29.84,WNW,299,4.0,9.0,87,0.00,,---,0.00,0.00,VWS V14.00,2013-03-01 07:30:00,
2013-03-01 02:31:00,32.2,28.2,29.84,NW,309,1.0,1.0,85,0.00,,---,0.00,0.00,VWS V14.00,2013-03-01 07:31:00,
2013-03-01 02:36:00,32.1,28.1,29.84,WNW,296,5.0,8.0,85,0.00,,---,0.00,0.00,VWS V14.00,2013-03-01 07:36:00,
2013-03-01 02:41:00,32.1,28.1,29.85,WNW,296,2.0,9.0,85,0.00,,---,0.00,0.00,VWS V14.00,2013-03-01 07:41:00,
2013-03-01 02:46:00,32.1,28.4,29.85,NW,307,8.0,9.0,86,0.00,,---,0.00,0.00,VWS V14.00,2013-03-01 07:46:00,
2013-03-01 02:51:00,32.1,28.4,29.84,NW,306,4.0,11.0,86,0.00,,---,0.00,0.00,VWS V14.00,2013-03-01 07:51:00,
2013-03-01 02:56:00,32.1,28.4,29.85,West,275,6.0,11.0,86,0.00,,---,0.00,0.00,VWS V14.00,2013-03-01 07:56:00,
2013-03-01 03:00:00,31.8,28.1,29.84,West,277,6.0,11.0,86,0.00,,---,0.00,0.00,VWS V14.00,2013-03-01 08:00:00,
2013-03-01 03:01:00,32.0,28.3,29.85,WNW,302,4.0,5.0,86,0.00,,---,0.00,0.00,VWS V14.00,2013-03-01 08:01:00,
2013-03-01 03:06:00,32.0,28.3,29.84,West,279,4.0,5.0,86,0.00,,---,0.00,0.00,VWS V14.00,2013-03-01 08:06:00,
2013-03-01 03:11:00,32.0,28.3,29.84,WNW,302,2.0,7.0,86,0.00,,---,0.00,0.00,VWS V14.00,2013-03-01 08:11:00,
2013-03-01 03:16:00,32.0,28.3,29.84,NNW,348,2.0,9.0,86,0.00,,---,0.00,0.00,VWS V14.00,2013-03-01 08:16:00,
2013-03-01 03:21:00,32.0,28.3,29.84,WNW,302,1.0,9.0,86,0.00,,---,0.00,0.00,VWS V14.00,2013-03-01 08:21:00,
2013-03-01 03:26:00,32.0,28.3,29.84,WNW,299,2.0,9.0,86,0.00,,---,0.00,0.00,VWS V14.00,2013-03-01 08:26:00,
2013-03-01 03:30:00,31.7,28.3,29.84,WNW,301,2.0,9.0,87,0.00,,---,0.00,0.00,VWS V14.00,2013-03-01 08:30:00,
2013-03-01 03:31:00,31.9,28.5,29.84,WNW,299,2.0,4.0,87,0.00,,---,0.00,0.00,VWS V14.00,2013-03-01 08:31:00,
2013-03-01 03:36:00,31.9,28.5,29.84,North,360,0.0,5.0,87,0.00,,---,0.00,0.00,VWS V14.00,2013-03-01 08:36:00,
2013-03-01 03:41:00,31.9,28.5,29.84,WNW,298,2.0,5.0,87,0.00,,---,0.00,0.00,VWS V14.00,2013-03-01 08:41:00,
2013-03-01 03:46:00,31.8,28.4,29.84,WNW,303,1.0,5.0,87,0.00,,---,0.00,0.00,VWS V14.00,2013-03-01 08:46:00,
2013-03-01 03:51:00,31.8,28.4,29.84,WNW,299,2.0,6.0,87,0.00,,---,0.00,0.00,VWS V14.00,2013-03-01 08:51:00,
2013-03-01 03:56:00,31.8,28.4,29.84,WNW,294,4.0,11.0,87,0.00,,---,0.00,0.00,VWS V14.00,2013-03-01 08:56:00,
2013-03-01 04:00:00,31.6,27.9,29.85,WNW,303,2.0,8.0,86,0.00,,---,0.00,0.00,VWS V14.00,2013-03-01 09:00:00,
2013-03-01 04:01:00,31.8,28.1,29.84,WNW,292,5.0,6.0,86,0.00,,---,0.00,0.00,VWS V14.00,2013-03-01 09:01:00,
2013-03-01 04:06:00,31.9,28.2,29.84,WNW,300,5.0,6.0,86,0.00,,---,0.00,0.00,VWS V14.00,2013-03-01 09:06:00,
2013-03-01 04:11:00,31.8,28.4,29.84,WNW,288,5.0,9.0,87,0.00,,---,0.00,0.00,VWS V14.00,2013-03-01 09:11:00,
2013-03-01 04:16:00,31.8,28.4,29.84,WNW,288,2.0,9.0,87,0.00,,---,0.00,0.00,VWS V14.00,2013-03-01 09:16:00,
2013-03-01 04:21:00,31.8,28.4,29.85,WNW,293,2.0,9.0,87,0.00,,---,0.00,0.00,VWS V14.00,2013-03-01 09:21:00,
2013-03-01 04:27:00,31.7,28.3,29.84,West,279,6.0,9.0,87,0.00,,---,0.00,0.00,VWS V14.00,2013-03-01 09:27:00,
2013-03-01 04:30:00,31.5,27.8,29.85,WNW,302,2.0,14.0,86,0.00,,---,0.00,0.00,VWS V14.00,2013-03-01 09:30:00,
2013-03-01 04:32:00,31.8,28.4,29.84,WNW,300,5.0,5.0,87,0.00,,---,0.00,0.00,VWS V14.00,2013-03-01 09:32:00,
2013-03-01 04:37:00,31.7,28.0,29.84,West,279,4.0,6.0,86,0.00,,---,0.00,0.00,VWS V14.00,2013-03-01 09:37:00,
2013-03-01 04:42:00,31.7,28.3,29.84,WNW,297,5.0,6.0,87,0.00,,---,0.00,0.00,VWS V14.00,2013-03-01 09:42:00,
2013-03-01 04:47:00,31.6,27.9,29.85,WNW,282,4.0,8.0,86,0.00,,---,0.00,0.00,VWS V14.00,2013-03-01 09:47:00,
2013-03-01 04:52:00,31.6,29.5,29.85,NW,314,2.0,8.0,92,0.00,,---,0.00,0.00,VWS V14.00,2013-03-01 09:52:00,
2013-03-01 04:57:00,31.6,27.9,29.85,WNW,293,5.0,8.0,86,0.00,,---,0.00,0.00,VWS V14.00,2013-03-01 09:57:00,
2013-03-01 05:00:00,31.3,27.9,29.86,NNW,329,2.0,9.0,87,0.00,,---,0.00,0.00,VWS V14.00,2013-03-01 10:00:00,
2013-03-01 05:02:00,31.6,27.9,29.85,WNW,301,4.0,6.0,86,0.00,,---,0.00,0.00,VWS V14.00,2013-03-01 10:02:00,
2013-03-01 05:07:00,31.6,27.9,29.85,WNW,294,11.0,11.0,86,0.00,,---,0.00,0.00,VWS V14.00,2013-03-01 10:07:00,
2013-03-01 05:12:00,31.5,27.8,29.85,WNW,294,5.0,14.0,86,0.00,,---,0.00,0.00,VWS V14.00,2013-03-01 10:12:00,
2013-03-01 05:17:00,31.5,27.8,29.85,NW,306,2.0,14.0,86,0.00,,---,0.00,0.00,VWS V14.00,2013-03-01 10:17:00,
2013-03-01 05:22:00,31.5,27.8,29.85,WNW,303,4.0,14.0,86,0.00,,---,0.00,0.00,VWS V14.00,2013-03-01 10:22:00,
2013-03-01 05:27:00,31.5,27.8,29.85,North,355,9.0,14.0,86,0.00,,---,0.00,0.00,VWS V14.00,2013-03-01 10:27:00,
2013-03-01 05:30:00,31.1,27.1,29.86,WNW,290,4.0,16.0,85,0.00,,---,0.00,0.00,VWS V14.00,2013-03-01 10:30:00,
2013-03-01 05:32:00,31.5,27.8,29.85,WNW,300,4.0,5.0,86,0.00,,---,0.00,0.00,VWS V14.00,2013-03-01 10:32:00,
2013-03-01 05:37:00,31.4,27.7,29.85,NNW,334,4.0,7.0,86,0.00,,---,0.00,0.00,VWS V14.00,2013-03-01 10:37:00,
2013-03-01 05:42:00,31.4,28.0,29.85,WNW,302,2.0,7.0,87,0.00,,---,0.00,0.00,VWS V14.00,2013-03-01 10:42:00,
2013-03-01 05:47:00,31.4,28.0,29.85,NW,310,2.0,7.0,87,0.00,,---,0.00,0.00,VWS V14.00,2013-03-01 10:47:00,
2013-03-01 05:52:00,31.3,27.9,29.85,WNW,303,1.0,7.0,87,0.00,,---,0.00,0.00,VWS V14.00,2013-03-01 10:52:00,
2013-03-01 05:57:00,31.3,27.9,29.85,North,5,7.0,9.0,87,0.00,,---,0.00,0.00,VWS V14.00,2013-03-01 10:57:00,
2013-03-01 06:00:00,31.0,27.0,29.87,WNW,294,0.0,11.0,85,0.00,,---,0.00,0.00,VWS V14.00,2013-03-01 11:00:00,
2013-03-01 06:02:00,31.3,27.9,29.86,NW,313,0.0,5.0,87,0.00,,---,0.00,0.00,VWS V14.00,2013-03-01 11:02:00,
2013-03-01 06:07:00,31.2,27.8,29.86,WNW,296,4.0,6.0,87,0.00,,---,0.00,0.00,VWS V14.00,2013-03-01 11:07:00,
2013-03-01 06:12:00,31.2,27.5,29.86,NNW,327,4.0,12.0,86,0.00,,---,0.00,0.00,VWS V14.00,2013-03-01 11:12:00,
2013-03-01 06:17:00,31.2,27.5,29.86,WNW,300,4.0,12.0,86,0.00,,---,0.00,0.00,VWS V14.00,2013-03-01 11:17:00,
2013-03-01 06:22:00,31.2,27.5,29.86,WNW,300,6.0,12.0,86,0.00,,---,0.00,0.00,VWS V14.00,2013-03-01 11:22:00,
2013-03-01 06:27:00,31.1,27.4,29.86,NW,312,6.0,12.0,86,0.00,,---,0.00,0.00,VWS V14.00,2013-03-01 11:27:00,
2013-03-01 06:30:00,30.9,27.2,29.89,NW,310,2.0,8.0,86,0.00,,---,0.00,7.00,VWS V14.00,2013-03-01 11:30:00,
2013-03-01 06:32:00,31.1,27.1,29.86,WNW,283,4.0,7.0,85,0.00,,---,0.00,0.00,VWS V14.00,2013-03-01 11:32:00,
2013-03-01 06:37:00,31.1,27.1,29.86,NW,307,5.0,11.0,85,0.00,,---,0.00,0.00,VWS V14.00,2013-03-01 11:37:00,
2013-03-01 06:42:00,31.0,27.0,29.86,WNW,282,4.0,11.0,85,0.00,,---,0.00,0.00,VWS V14.00,2013-03-01 11:42:00,
2013-03-01 06:47:00,31.0,27.0,29.86,NW,311,6.0,11.0,85,0.00,,---,0.00,0.00,VWS V14.00,2013-03-01 11:47:00,
2013-03-01 06:52:00,31.0,27.0,29.86,NW,306,6.0,11.0,85,0.00,,---,0.00,0.00,VWS V14.00,2013-03-01 11:52:00,
2013-03-01 06:57:00,31.0,27.0,29.86,NW,313,2.0,11.0,85,0.00,,---,0.00,0.00,VWS V14.00,2013-03-01 11:57:00,
2013-03-01 07:00:00,30.7,27.3,29.90,NW,306,2.0,9.0,87,0.00,,---,0.00,19.00,VWS V14.00,2013-03-01 12:00:00,
2013-03-01 07:03:00,31.0,27.0,29.87,WNW,300,1.0,6.0,85,0.00,,---,0.00,0.00,VWS V14.00,2013-03-01 12:03:00,
2013-03-01 07:08:00,31.0,27.0,29.87,WNW,300,4.0,8.0,85,0.00,,---,0.00,0.00,VWS V14.00,2013-03-01 12:08:00,
2013-03-01 07:13:00,30.9,26.9,29.87,WNW,286,6.0,8.0,85,0.00,,---,0.00,5.00,VWS V14.00,2013-03-01 12:13:00,
2013-03-01 07:18:00,30.9,26.9,29.88,WNW,302,1.0,8.0,85,0.00,,---,0.00,5.00,VWS V14.00,2013-03-01 12:18:00,
2013-03-01 07:23:00,30.9,26.9,29.88,NW,310,4.0,8.0,85,0.00,,---,0.00,5.00,VWS V14.00,2013-03-01 12:23:00,
2013-03-01 07:28:00,30.9,27.2,29.88,NW,311,1.0,8.0,86,0.00,,---,0.00,7.00,VWS V14.00,2013-03-01 12:28:00,
2013-03-01 07:30:00,30.7,27.6,29.91,NW,304,4.0,11.0,88,0.00,,---,0.00,40.00,VWS V14.00,2013-03-01 12:30:00,
2013-03-01 07:33:00,30.8,27.1,29.88,NW,310,0.0,2.0,86,0.00,,---,0.00,7.00,VWS V14.00,2013-03-01 12:33:00,
2013-03-01 07:38:00,30.9,26.9,29.89,NW,314,4.0,8.0,85,0.00,,---,0.00,11.00,VWS V14.00,2013-03-01 12:38:00,
2013-03-01 07:43:00,30.9,26.9,29.89,WNW,302,9.0,9.0,85,0.00,,---,0.00,9.00,VWS V14.00,2013-03-01 12:43:00,
2013-03-01 07:48:00,30.8,27.1,29.89,NW,305,5.0,9.0,86,0.00,,---,0.00,11.00,VWS V14.00,2013-03-01 12:48:00,
2013-03-01 07:53:00,30.8,27.1,29.90,NW,313,4.0,9.0,86,0.00,,---,0.00,12.00,VWS V14.00,2013-03-01 12:53:00,
2013-03-01 07:58:00,30.8,27.1,29.90,WNW,299,2.0,9.0,86,0.00,,---,0.00,18.00,VWS V14.00,2013-03-01 12:58:00,
2013-03-01 08:00:00,30.9,28.0,29.91,WNW,293,2.0,8.0,89,0.00,,---,0.00,83.00,VWS V14.00,2013-03-01 13:00:00,
2013-03-01 08:03:00,30.7,27.3,29.90,WNW,297,4.0,6.0,87,0.00,,---,0.00,21.00,VWS V14.00,2013-03-01 13:03:00,
2013-03-01 08:08:00,30.7,27.3,29.90,NW,308,4.0,7.0,87,0.00,,---,0.00,25.00,VWS V14.00,2013-03-01 13:08:00,
2013-03-01 08:13:00,30.7,27.3,29.90,WNW,302,4.0,7.0,87,0.00,,---,0.00,26.00,VWS V14.00,2013-03-01 13:13:00,
2013-03-01 08:18:00,30.7,27.3,29.90,NW,304,4.0,11.0,87,0.00,,---,0.00,28.00,VWS V14.00,2013-03-01 13:18:00,
2013-03-01 08:23:00,30.7,27.6,29.91,WNW,300,5.0,11.0,88,0.00,,---,0.00,28.00,VWS V14.00,2013-03-01 13:23:00,
2013-03-01 08:28:00,30.7,27.6,29.91,WNW,288,2.0,11.0,88,0.00,,---,0.00,35.00,VWS V14.00,2013-03-01 13:28:00,
2013-03-01 08:30:00,30.9,28.3,29.91,WNW,287,0.0,6.0,90,0.00,,---,0.00,86.00,VWS V14.00,2013-03-01 13:30:00,
2013-03-01 08:33:00,30.7,27.6,29.91,WNW,297,0.0,5.0,88,0.00,,---,0.00,39.00,VWS V14.00,2013-03-01 13:33:00,
2013-03-01 08:38:00,30.8,27.7,29.91,West,281,0.0,7.0,88,0.00,,---,0.00,46.00,VWS V14.00,2013-03-01 13:38:00,
2013-03-01 08:43:00,30.8,27.7,29.91,WNW,300,2.0,7.0,88,0.00,,---,0.00,60.00,VWS V14.00,2013-03-01 13:43:00,
2013-03-01 08:48:00,30.8,27.7,29.91,WNW,290,0.0,7.0,88,0.00,,---,0.00,77.00,VWS V14.00,2013-03-01 13:48:00,
2013-03-01 08:53:00,30.9,28.0,29.91,WNW,301,5.0,7.0,89,0.00,,---,0.00,84.00,VWS V14.00,2013-03-01 13:53:00,
2013-03-01 08:58:00,30.9,28.0,29.91,WNW,301,4.0,7.0,89,0.00,,---,0.00,88.00,VWS V14.00,2013-03-01 13:58:00,
2013-03-01 09:00:00,31.0,28.7,29.91,NNW,341,2.0,6.0,91,0.00,,---,0.00,83.00,VWS V14.00,2013-03-01 14:00:00,
2013-03-01 09:03:00,30.9,28.0,29.91,NW,311,1.0,6.0,89,0.00,,---,0.00,76.00,VWS V14.00,2013-03-01 14:03:00,
2013-03-01 09:08:00,30.9,28.0,29.91,WNW,302,1.0,6.0,89,0.00,,---,0.00,77.00,VWS V14.00,2013-03-01 14:08:00,
2013-03-01 09:13:00,30.9,28.3,29.91,WNW,302,2.0,6.0,90,0.00,,---,0.00,100.00,VWS V14.00,2013-03-01 14:13:00,
2013-03-01 09:19:00,30.9,28.0,29.91,WNW,286,2.0,6.0,89,0.00,,---,0.00,98.00,VWS V14.00,2013-03-01 14:19:00,
2013-03-01 09:24:00,30.9,28.3,29.91,WNW,286,1.0,6.0,90,0.00,,---,0.00,105.00,VWS V14.00,2013-03-01 14:24:00,
2013-03-01 09:29:00,30.9,28.3,29.91,WNW,286,1.0,6.0,90,0.00,,---,0.00,91.00,VWS V14.00,2013-03-01 14:29:00,
2013-03-01 09:30:00,31.3,28.4,29.91,NW,317,5.0,9.0,89,0.00,,---,0.00,200.00,VWS V14.00,2013-03-01 14:30:00,
2013-03-01 09:34:00,30.9,28.3,29.91,WNW,287,1.0,2.0,90,0.00,,---,0.00,81.00,VWS V14.00,2013-03-01 14:34:00,
2013-03-01 09:39:00,31.0,28.4,29.91,WNW,288,0.0,4.0,90,0.00,,---,0.00,79.00,VWS V14.00,2013-03-01 14:39:00,
2013-03-01 09:44:00,31.0,28.4,29.91,WNW,287,1.0,6.0,90,0.00,,---,0.00,86.00,VWS V14.00,2013-03-01 14:44:00,
2013-03-01 09:49:00,31.0,28.4,29.91,NW,304,4.0,6.0,90,0.00,,---,0.00,65.00,VWS V14.00,2013-03-01 14:49:00,
2013-03-01 09:54:00,31.0,28.4,29.91,NW,304,0.0,6.0,90,0.00,,---,0.00,53.00,VWS V14.00,2013-03-01 14:54:00,
2013-03-01 09:59:00,31.0,28.4,29.91,NW,306,4.0,6.0,90,0.00,,---,0.00,54.00,VWS V14.00,2013-03-01 14:59:00,
2013-03-01 10:00:00,31.9,28.5,29.91,WNW,302,5.0,12.0,87,0.00,,---,0.00,232.00,VWS V14.00,2013-03-01 15:00:00,
2013-03-01 10:04:00,30.9,28.6,29.91,North,355,0.0,4.0,91,0.00,,---,0.00,86.00,VWS V14.00,2013-03-01 15:04:00,
2013-03-01 10:09:00,31.0,28.7,29.91,NW,323,4.0,5.0,91,0.00,,---,0.00,179.00,VWS V14.00,2013-03-01 15:09:00,
2013-03-01 10:14:00,31.0,28.4,29.91,NW,312,4.0,7.0,90,0.00,,---,0.00,167.00,VWS V14.00,2013-03-01 15:14:00,
2013-03-01 10:19:00,31.1,28.2,29.91,NNW,340,4.0,8.0,89,0.00,,---,0.00,185.00,VWS V14.00,2013-03-01 15:19:00,
2013-03-01 10:24:00,31.1,28.2,29.91,North,351,6.0,9.0,89,0.00,,---,0.00,158.00,VWS V14.00,2013-03-01 15:24:00,
2013-03-01 10:29:00,31.2,28.3,29.91,WNW,303,4.0,9.0,89,0.00,,---,0.00,156.00,VWS V14.00,2013-03-01 15:29:00,
2013-03-01 10:30:00,33.5,29.2,29.91,NW,312,5.0,12.0,84,0.00,,---,0.01,258.00,VWS V14.00,2013-03-01 15:30:00,
2013-03-01 10:34:00,31.4,28.8,29.91,NNW,340,4.0,6.0,90,0.00,,---,0.00,251.00,VWS V14.00,2013-03-01 15:34:00,
2013-03-01 10:39:00,31.6,29.0,29.91,WNW,300,5.0,7.0,90,0.00,,---,0.00,264.00,VWS V14.00,2013-03-01 15:39:00,
2013-03-01 10:44:00,31.7,28.8,29.91,NNW,342,0.0,7.0,89,0.00,,---,0.00,220.00,VWS V14.00,2013-03-01 15:44:00,
2013-03-01 10:49:00,31.8,28.7,29.91,WNW,300,4.0,7.0,88,0.00,,---,0.00,200.00,VWS V14.00,2013-03-01 15:49:00,
2013-03-01 10:54:00,31.9,28.8,29.91,WNW,294,8.0,12.0,88,0.00,,---,0.00,155.00,VWS V14.00,2013-03-01 15:54:00,
2013-03-01 10:59:00,31.9,28.8,29.91,WNW,296,4.0,12.0,88,0.00,,---,0.00,195.00,VWS V14.00,2013-03-01 15:59:00,
2013-03-01 11:00:00,33.9,26.5,29.92,North,5,7.0,14.0,74,0.00,,---,0.01,271.00,VWS V14.00,2013-03-01 16:00:00,
2013-03-01 11:04:00,32.1,28.7,29.91,WNW,300,5.0,12.0,87,0.00,,---,0.00,299.00,VWS V14.00,2013-03-01 16:04:00,
2013-03-01 11:09:00,32.5,28.8,29.91,WNW,296,8.0,12.0,86,0.00,,---,0.00,360.00,VWS V14.00,2013-03-01 16:09:00,
2013-03-01 11:14:00,32.8,28.5,29.91,WNW,296,7.0,12.0,84,0.00,,---,0.00,334.00,VWS V14.00,2013-03-01 16:14:00,
2013-03-01 11:19:00,32.9,28.6,29.91,NW,325,4.0,12.0,84,0.00,,---,0.00,299.00,VWS V14.00,2013-03-01 16:19:00,
2013-03-01 11:24:00,33.0,29.0,29.91,WNW,285,5.0,12.0,85,0.00,,---,0.01,374.00,VWS V14.00,2013-03-01 16:24:00,
2013-03-01 11:29:00,33.4,29.4,29.91,WSW,245,2.0,12.0,85,0.00,,---,0.01,304.00,VWS V14.00,2013-03-01 16:29:00,
2013-03-01 11:30:00,33.7,26.3,29.91,NW,319,2.0,14.0,74,0.00,,---,0.01,229.00,VWS V14.00,2013-03-01 16:30:00,
2013-03-01 11:34:00,33.6,28.7,29.91,North,349,4.0,11.0,82,0.00,,---,0.01,267.00,VWS V14.00,2013-03-01 16:34:00,
2013-03-01 11:39:00,33.6,28.4,29.92,NNW,335,4.0,11.0,81,0.00,,---,0.01,213.00,VWS V14.00,2013-03-01 16:39:00,
2013-03-01 11:44:00,33.3,28.4,29.92,WNW,292,7.0,13.0,82,0.00,,---,0.01,315.00,VWS V14.00,2013-03-01 16:44:00,
2013-03-01 11:49:00,33.3,28.1,29.92,NW,319,5.0,13.0,81,0.00,,---,0.01,439.00,VWS V14.00,2013-03-01 16:49:00,
2013-03-01 11:54:00,33.8,28.6,29.92,WNW,296,7.0,13.0,81,0.00,,---,0.01,403.00,VWS V14.00,2013-03-01 16:54:00,
2013-03-01 11:59:00,33.9,28.1,29.92,NNW,329,7.0,13.0,79,0.00,,---,0.01,350.00,VWS V14.00,2013-03-01 16:59:00,
2013-03-01 12:00:00,33.3,25.9,29.91,NW,313,4.0,16.0,74,0.00,,---,0.01,267.00,VWS V14.00,2013-03-01 17:00:00,
2013-03-01 12:04:00,33.7,26.3,29.92,NW,316,6.0,9.0,74,0.00,,---,0.01,301.00,VWS V14.00,2013-03-01 17:04:00,
2013-03-01 12:09:00,33.8,27.4,29.92,WNW,284,13.0,13.0,77,0.00,,---,0.01,301.00,VWS V14.00,2013-03-01 17:09:00,
2013-03-01 12:14:00,33.7,26.6,29.92,West,281,6.0,14.0,75,0.00,,---,0.01,339.00,VWS V14.00,2013-03-01 17:14:00,
2013-03-01 12:19:00,33.9,27.5,29.92,West,277,7.0,14.0,77,0.00,,---,0.01,392.00,VWS V14.00,2013-03-01 17:19:00,
2013-03-01 12:25:00,34.0,27.2,29.91,NW,310,7.0,14.0,76,0.00,,---,0.01,229.00,VWS V14.00,2013-03-01 17:25:00,
2013-03-01 12:30:00,33.7,26.0,29.92,NNW,339,1.0,14.0,73,0.00,,---,0.01,221.00,VWS V14.00,2013-03-01 17:30:00,
2013-03-01 12:35:00,33.7,27.0,29.91,West,264,4.0,9.0,76,0.00,,---,0.01,264.00,VWS V14.00,2013-03-01 17:35:00,
2013-03-01 12:40:00,33.8,26.7,29.91,NW,308,7.0,11.0,75,0.00,,---,0.01,220.00,VWS V14.00,2013-03-01 17:40:00,
2013-03-01 12:45:00,33.7,26.6,29.91,NW,305,5.0,11.0,75,0.00,,---,0.01,253.00,VWS V14.00,2013-03-01 17:45:00,
2013-03-01 12:50:00,33.6,27.2,29.91,NW,308,6.0,13.0,77,0.00,,---,0.01,272.00,VWS V14.00,2013-03-01 17:50:00,
2013-03-01 12:55:00,33.7,26.6,29.91,North,349,7.0,14.0,75,0.00,,---,0.01,213.00,VWS V14.00,2013-03-01 17:55:00,
2013-03-01 13:00:00,33.4,25.7,29.91,NNW,341,6.0,16.0,73,0.00,,---,0.01,232.00,VWS V14.00,2013-03-01 18:00:00,
2013-03-01 13:05:00,33.4,26.3,29.91,WNW,299,14.0,14.0,75,0.00,,---,0.01,323.00,VWS V14.00,2013-03-01 18:05:00,
2013-03-01 13:10:00,33.5,26.8,29.91,WNW,300,4.0,14.0,76,0.00,,---,0.01,316.00,VWS V14.00,2013-03-01 18:10:00,
2013-03-01 13:15:00,33.8,27.0,29.91,West,273,7.0,14.0,76,0.00,,---,0.01,315.00,VWS V14.00,2013-03-01 18:15:00,
2013-03-01 13:20:00,33.8,26.4,29.91,WNW,283,4.0,14.0,74,0.00,,---,0.01,302.00,VWS V14.00,2013-03-01 18:20:00,
2013-03-01 13:25:00,34.1,26.7,29.91,WNW,300,7.0,14.0,74,0.00,,---,0.01,265.00,VWS V14.00,2013-03-01 18:25:00,
2013-03-01 13:30:00,34.0,26.6,29.91,NW,317,5.0,14.0,74,0.00,,---,0.01,239.00,VWS V14.00,2013-03-01 18:30:00,
2013-03-01 13:35:00,33.6,26.2,29.91,North,355,8.0,13.0,74,0.00,,---,0.01,244.00,VWS V14.00,2013-03-01 18:35:00,
2013-03-01 13:40:00,33.6,26.9,29.91,WNW,298,7.0,13.0,76,0.00,,---,0.01,308.00,VWS V14.00,2013-03-01 18:40:00,
2013-03-01 13:45:00,33.9,26.5,29.90,WNW,295,12.0,14.0,74,0.00,,---,0.01,350.00,VWS V14.00,2013-03-01 18:45:00,
2013-03-01 13:50:00,33.9,26.2,29.90,West,279,12.0,14.0,73,0.00,,---,0.01,394.00,VWS V14.00,2013-03-01 18:50:00,
2013-03-01 13:55:00,33.8,25.7,29.90,West,269,10.0,14.0,72,0.00,,---,0.01,397.00,VWS V14.00,2013-03-01 18:55:00,
2013-03-01 14:00:00,34.1,26.7,29.90,WNW,286,6.0,18.0,74,0.00,,---,0.01,424.00,VWS V14.00,2013-03-01 19:00:00,
2013-03-01 14:05:00,34.1,26.4,29.90,WNW,296,9.0,18.0,73,0.00,,---,0.01,206.00,VWS V14.00,2013-03-01 19:05:00,
2013-03-01 14:10:00,33.4,26.0,29.90,WNW,298,12.0,18.0,74,0.00,,---,0.01,162.00,VWS V14.00,2013-03-01 19:10:00,
2013-03-01 14:15:00,32.7,26.3,29.90,NW,308,5.0,18.0,77,0.00,,---,0.01,202.00,VWS V14.00,2013-03-01 19:15:00,
2013-03-01 14:20:00,32.4,26.9,29.90,NW,309,2.0,18.0,80,0.00,,---,0.01,223.00,VWS V14.00,2013-03-01 19:20:00,
2013-03-01 14:25:00,32.3,26.5,29.90,NW,306,6.0,18.0,79,0.00,,---,0.01,232.00,VWS V14.00,2013-03-01 19:25:00,
2013-03-01 14:30:00,32.3,26.2,29.90,NW,313,6.0,18.0,78,0.00,,---,0.01,236.00,VWS V14.00,2013-03-01 19:30:00,
2013-03-01 14:35:00,32.1,26.3,29.90,NW,311,2.0,11.0,79,0.00,,---,0.01,216.00,VWS V14.00,2013-03-01 19:35:00,
2013-03-01 14:41:00,32.1,26.3,29.90,NW,306,4.0,11.0,79,0.00,,---,0.01,230.00,VWS V14.00,2013-03-01 19:41:00,
2013-03-01 14:46:00,32.3,26.5,29.90,West,280,5.0,11.0,79,0.00,,---,0.01,271.00,VWS V14.00,2013-03-01 19:46:00,
2013-03-01 14:51:00,32.6,27.1,29.90,WNW,289,0.0,11.0,80,0.00,,---,0.01,264.00,VWS V14.00,2013-03-01 19:51:00,
2013-03-01 14:56:00,32.8,27.3,29.90,WNW,301,5.0,11.0,80,0.00,,---,0.01,146.00,VWS V14.00,2013-03-01 19:56:00,
2013-03-01 15:00:00,31.4,26.0,29.91,NW,310,4.0,11.0,80,0.00,,---,0.01,155.00,VWS V14.00,2013-03-01 20:00:00,
2013-03-01 15:01:00,32.2,26.7,29.91,NNW,344,5.0,12.0,80,0.00,,---,0.01,91.00,VWS V14.00,2013-03-01 20:01:00,
2013-03-01 15:06:00,31.4,27.1,29.91,NW,323,4.0,11.0,84,0.00,,---,0.01,77.00,VWS V14.00,2013-03-01 20:06:00,
2013-03-01 15:11:00,31.0,27.0,29.91,NNW,339,5.0,11.0,85,0.00,,---,0.01,83.00,VWS V14.00,2013-03-01 20:11:00,
2013-03-01 15:16:00,30.9,26.9,29.90,WNW,302,4.0,11.0,85,0.00,,---,0.01,102.00,VWS V14.00,2013-03-01 20:16:00,
2013-03-01 15:21:00,30.9,26.9,29.91,WNW,296,2.0,11.0,85,0.00,,---,0.01,123.00,VWS V14.00,2013-03-01 20:21:00,
2013-03-01 15:26:00,31.0,27.0,29.91,WNW,300,4.0,11.0,85,0.00,,---,0.01,116.00,VWS V14.00,2013-03-01 20:26:00,
2013-03-01 15:30:00,31.9,26.1,29.92,NW,309,5.0,10.0,79,0.00,,---,0.01,62.00,VWS V14.00,2013-03-01 20:30:00,
2013-03-01 15:31:00,31.2,27.2,29.91,NW,311,0.0,11.0,85,0.00,,---,0.01,84.00,VWS V14.00,2013-03-01 20:31:00,
2013-03-01 15:36:00,31.4,26.8,29.91,WNW,296,7.0,10.0,83,0.00,,---,0.01,76.00,VWS V14.00,2013-03-01 20:36:00,
2013-03-01 15:41:00,31.4,26.5,29.91,NNW,348,7.0,11.0,82,0.00,,---,0.01,69.00,VWS V14.00,2013-03-01 20:41:00,
2013-03-01 15:46:00,31.2,26.4,29.91,North,351,4.0,11.0,82,0.00,,---,0.01,88.00,VWS V14.00,2013-03-01 20:46:00,
2013-03-01 15:51:00,31.1,26.0,29.91,North,5,8.0,11.0,81,0.00,,---,0.01,105.00,VWS V14.00,2013-03-01 20:51:00,
2013-03-01 15:56:00,31.2,26.4,29.91,NW,317,2.0,11.0,82,0.00,,---,0.01,144.00,VWS V14.00,2013-03-01 20:56:00,
2013-03-01 16:00:00,31.4,25.6,29.92,NW,326,2.0,11.0,79,0.00,,---,0.01,40.00,VWS V14.00,2013-03-01 21:00:00,
2013-03-01 16:01:00,31.4,26.0,29.91,NW,312,4.0,4.0,80,0.00,,---,0.01,155.00,VWS V14.00,2013-03-01 21:01:00,
2013-03-01 16:06:00,31.6,25.5,29.91,NNW,330,8.0,10.0,78,0.00,,---,0.01,155.00,VWS V14.00,2013-03-01 21:06:00,
2013-03-01 16:11:00,31.7,25.9,29.91,NW,306,6.0,10.0,79,0.00,,---,0.01,155.00,VWS V14.00,2013-03-01 21:11:00,
2013-03-01 16:16:00,32.0,26.2,29.91,NW,304,1.0,10.0,79,0.00,,---,0.01,149.00,VWS V14.00,2013-03-01 21:16:00,
2013-03-01 16:21:00,32.0,26.5,29.91,NW,323,5.0,10.0,80,0.00,,---,0.01,167.00,VWS V14.00,2013-03-01 21:21:00,
2013-03-01 16:26:00,32.0,26.2,29.92,NNW,336,2.0,10.0,79,0.00,,---,0.01,104.00,VWS V14.00,2013-03-01 21:26:00,
2013-03-01 16:30:00,31.0,25.6,29.93,NW,322,2.0,7.0,80,0.00,,---,0.01,12.00,VWS V14.00,2013-03-01 21:30:00,
2013-03-01 16:31:00,31.9,26.1,29.92,NW,321,6.0,6.0,79,0.00,,---,0.01,54.00,VWS V14.00,2013-03-01 21:31:00,
2013-03-01 16:36:00,31.7,25.6,29.92,NNW,330,4.0,8.0,78,0.00,,---,0.01,35.00,VWS V14.00,2013-03-01 21:36:00,
2013-03-01 16:41:00,31.6,25.9,29.92,NNW,342,4.0,8.0,79,0.00,,---,0.01,35.00,VWS V14.00,2013-03-01 21:41:00,
2013-03-01 16:47:00,31.6,25.9,29.92,NW,322,2.0,8.0,79,0.00,,---,0.01,49.00,VWS V14.00,2013-03-01 21:47:00,
2013-03-01 16:52:00,31.5,25.8,29.92,WNW,301,7.0,8.0,79,0.00,,---,0.01,53.00,VWS V14.00,2013-03-01 21:52:00,
2013-03-01 16:57:00,31.4,25.6,29.92,WNW,299,2.0,11.0,79,0.00,,---,0.01,47.00,VWS V14.00,2013-03-01 21:57:00,
2013-03-01 17:00:00,30.6,25.5,29.94,WNW,300,4.0,7.0,81,0.00,,---,0.01,5.00,VWS V14.00,2013-03-01 22:00:00,
2013-03-01 17:02:00,31.4,25.6,29.92,NW,318,1.0,4.0,79,0.00,,---,0.01,40.00,VWS V14.00,2013-03-01 22:02:00,
2013-03-01 17:07:00,31.3,25.9,29.92,WNW,290,0.0,6.0,80,0.00,,---,0.01,33.00,VWS V14.00,2013-03-01 22:07:00,
2013-03-01 17:12:00,31.2,26.1,29.93,North,360,0.0,6.0,81,0.00,,---,0.01,33.00,VWS V14.00,2013-03-01 22:12:00,
2013-03-01 17:17:00,31.1,26.0,29.93,NW,325,4.0,6.0,81,0.00,,---,0.01,28.00,VWS V14.00,2013-03-01 22:17:00,
2013-03-01 17:22:00,31.1,26.0,29.93,NW,317,1.0,6.0,81,0.00,,---,0.01,19.00,VWS V14.00,2013-03-01 22:22:00,
2013-03-01 17:27:00,31.0,25.9,29.93,NNE,17,3.0,6.0,81,0.00,,---,0.01,14.00,VWS V14.00,2013-03-01 22:27:00,
2013-03-01 17:30:00,30.3,25.5,29.94,NNW,329,0.0,7.0,82,0.00,,---,0.01,0.00,VWS V14.00,2013-03-01 22:30:00,
2013-03-01 17:32:00,31.0,25.6,29.93,NW,322,4.0,4.0,80,0.00,,---,0.01,11.00,VWS V14.00,2013-03-01 22:32:00,
2013-03-01 17:37:00,30.9,25.8,29.93,NW,320,2.0,7.0,81,0.00,,---,0.01,9.00,VWS V14.00,2013-03-01 22:37:00,
2013-03-01 17:42:00,30.8,25.7,29.94,NNW,340,1.0,7.0,81,0.00,,---,0.01,7.00,VWS V14.00,2013-03-01 22:42:00,
2013-03-01 17:47:00,30.8,25.7,29.94,NW,322,0.0,7.0,81,0.00,,---,0.01,7.00,VWS V14.00,2013-03-01 22:47:00,
2013-03-01 17:52:00,30.7,25.6,29.94,NW,322,5.0,7.0,81,0.00,,---,0.01,7.00,VWS V14.00,2013-03-01 22:52:00,
2013-03-01 17:57:00,30.7,25.6,29.94,NNW,348,0.0,7.0,81,0.00,,---,0.01,7.00,VWS V14.00,2013-03-01 22:57:00,
2013-03-01 18:00:00,30.0,25.5,29.95,NE,36,0.0,6.0,83,0.00,,---,0.01,0.00,VWS V14.00,2013-03-01 23:00:00,
2013-03-01 18:02:00,30.6,25.5,29.94,NW,319,2.0,7.0,81,0.00,,---,0.01,5.00,VWS V14.00,2013-03-01 23:02:00,
2013-03-01 18:07:00,30.6,25.5,29.94,North,349,1.0,7.0,81,0.00,,---,0.01,0.00,VWS V14.00,2013-03-01 23:07:00,
2013-03-01 18:12:00,30.5,25.4,29.94,North,355,2.0,7.0,81,0.00,,---,0.01,0.00,VWS V14.00,2013-03-01 23:12:00,
2013-03-01 18:17:00,30.5,25.4,29.94,WNW,300,1.0,7.0,81,0.00,,---,0.01,0.00,VWS V14.00,2013-03-01 23:17:00,
2013-03-01 18:22:00,30.4,25.3,29.94,NW,326,2.0,7.0,81,0.00,,---,0.01,0.00,VWS V14.00,2013-03-01 23:22:00,
2013-03-01 18:27:00,30.4,25.6,29.94,NNW,345,1.0,7.0,82,0.00,,---,0.01,0.00,VWS V14.00,2013-03-01 23:27:00,
2013-03-01 18:30:00,29.6,25.6,29.96,NNW,340,2.0,5.0,85,0.00,,---,0.01,0.00,VWS V14.00,2013-03-01 23:30:00,
2013-03-01 18:32:00,30.3,25.8,29.94,NW,312,2.0,2.0,83,0.00,,---,0.01,0.00,VWS V14.00,2013-03-01 23:32:00,
2013-03-01 18:37:00,30.2,25.4,29.94,North,5,3.0,5.0,82,0.00,,---,0.01,0.00,VWS V14.00,2013-03-01 23:37:00,
2013-03-01 18:42:00,30.2,25.4,29.94,NNW,332,0.0,6.0,82,0.00,,---,0.01,0.00,VWS V14.00,2013-03-01 23:42:00,
2013-03-01 18:47:00,30.2,25.7,29.95,NNE,21,2.0,6.0,83,0.00,,---,0.01,0.00,VWS V14.00,2013-03-01 23:47:00,
2013-03-01 18:52:00,30.1,25.6,29.95,NE,35,0.0,6.0,83,0.00,,---,0.01,0.00,VWS V14.00,2013-03-01 23:52:00,
2013-03-01 18:57:00,30.1,25.6,29.95,NNE,23,2.0,6.0,83,0.00,,---,0.01,0.00,VWS V14.00,2013-03-01 23:57:00,
2013-03-01 19:00:00,29.3,25.4,29.97,NNW,345,2.0,7.0,85,0.00,,---,0.01,0.00,VWS V14.00,2013-03-02 00:00:00,
2013-03-01 19:02:00,30.0,25.5,29.95,NE,37,0.0,2.0,83,0.00,,---,0.01,0.00,VWS V14.00,2013-03-02 00:02:00,
2013-03-01 19:07:00,29.9,25.7,29.95,NE,36,0.0,2.0,84,0.00,,---,0.01,0.00,VWS V14.00,2013-03-02 00:07:00,
2013-03-01 19:12:00,29.9,26.0,29.96,NE,36,0.0,2.0,85,0.00,,---,0.01,0.00,VWS V14.00,2013-03-02 00:12:00,
2013-03-01 19:17:00,29.8,25.9,29.96,WNW,298,2.0,4.0,85,0.00,,---,0.01,0.00,VWS V14.00,2013-03-02 00:17:00,
2013-03-01 19:22:00,29.7,25.8,29.96,NE,37,2.0,5.0,85,0.00,,---,0.01,0.00,VWS V14.00,2013-03-02 00:22:00,
2013-03-01 19:27:00,29.7,25.8,29.96,NNW,340,0.0,5.0,85,0.00,,---,0.01,0.00,VWS V14.00,2013-03-02 00:27:00,
2013-03-01 19:30:00,29.1,24.9,29.97,NNW,338,0.0,8.0,84,0.00,,---,0.01,0.00,VWS V14.00,2013-03-02 00:30:00,
2013-03-01 19:32:00,29.6,25.6,29.96,NNW,342,2.0,4.0,85,0.00,,---,0.01,0.00,VWS V14.00,2013-03-02 00:32:00,
2013-03-01 19:37:00,29.6,25.6,29.96,NNW,348,2.0,6.0,85,0.00,,---,0.01,0.00,VWS V14.00,2013-03-02 00:37:00,
2013-03-01 19:42:00,29.5,25.6,29.96,North,5,0.0,6.0,85,0.00,,---,0.01,0.00,VWS V14.00,2013-03-02 00:42:00,
2013-03-01 19:47:00,29.5,25.6,29.96,NNW,329,2.0,7.0,85,0.00,,---,0.01,0.00,VWS V14.00,2013-03-02 00:47:00,
2013-03-01 19:52:00,29.4,25.5,29.97,NNW,346,1.0,7.0,85,0.00,,---,0.01,0.00,VWS V14.00,2013-03-02 00:52:00,
2013-03-01 19:57:00,29.3,25.4,29.97,NNE,26,3.0,7.0,85,0.00,,---,0.01,0.00,VWS V14.00,2013-03-02 00:57:00,
2013-03-01 20:00:00,29.0,24.8,29.97,NE,44,3.0,6.0,84,0.00,,---,0.01,0.00,VWS V14.00,2013-03-02 01:00:00,
2013-03-01 20:02:00,29.3,25.4,29.97,North,349,2.0,5.0,85,0.00,,---,0.01,0.00,VWS V14.00,2013-03-02 01:02:00,
2013-03-01 20:07:00,29.3,25.4,29.97,NNW,348,4.0,5.0,85,0.00,,---,0.01,0.00,VWS V14.00,2013-03-02 01:07:00,
2013-03-01 20:13:00,29.2,25.3,29.97,NE,41,3.0,5.0,85,0.00,,---,0.01,0.00,VWS V14.00,2013-03-02 01:13:00,
2013-03-01 20:17:00,29.2,25.0,29.97,NNE,12,1.0,5.0,84,0.00,,---,0.01,0.00,VWS V14.00,2013-03-02 01:17:00,
2013-03-01 20:23:00,29.2,25.0,29.97,NW,325,4.0,7.0,84,0.00,,---,0.01,0.00,VWS V14.00,2013-03-02 01:23:00,
2013-03-01 20:28:00,29.1,24.9,29.97,NNW,327,2.0,8.0,84,0.00,,---,0.01,0.00,VWS V14.00,2013-03-02 01:28:00,
2013-03-01 20:30:00,28.8,24.9,29.97,NNW,345,0.0,5.0,85,0.00,,---,0.01,0.00,VWS V14.00,2013-03-02 01:30:00,
2013-03-01 20:33:00,29.0,24.8,29.97,NW,326,0.0,4.0,84,0.00,,---,0.01,0.00,VWS V14.00,2013-03-02 01:33:00,
2013-03-01 20:38:00,29.1,24.9,29.97,NW,325,0.0,4.0,84,0.00,,---,0.01,0.00,VWS V14.00,2013-03-02 01:38:00,
2013-03-01 20:43:00,29.0,24.8,29.97,ENE,59,2.0,4.0,84,0.00,,---,0.01,0.00,VWS V14.00,2013-03-02 01:43:00,
2013-03-01 20:48:00,29.0,24.8,29.97,North,350,0.0,4.0,84,0.00,,---,0.01,0.00,VWS V14.00,2013-03-02 01:48:00,
2013-03-01 20:53:00,29.0,24.8,29.97,NW,312,0.0,6.0,84,0.00,,---,0.01,0.00,VWS V14.00,2013-03-02 01:53:00,
2013-03-01 20:58:00,29.0,24.8,29.97,North,5,0.0,6.0,84,0.00,,---,0.01,0.00,VWS V14.00,2013-03-02 01:58:00,
2013-03-01 21:00:00,28.8,25.1,29.98,NNE,30,0.0,3.0,86,0.00,,---,0.01,0.00,VWS V14.00,2013-03-02 02:00:00,
2013-03-01 21:03:00,29.0,24.8,29.97,NNE,24,0.0,5.0,84,0.00,,---,0.01,0.00,VWS V14.00,2013-03-02 02:03:00,
2013-03-01 21:08:00,28.9,24.7,29.97,NNE,24,1.0,5.0,84,0.00,,---,0.01,0.00,VWS V14.00,2013-03-02 02:08:00,
2013-03-01 21:13:00,28.9,25.0,29.97,NNW,346,0.0,5.0,85,0.00,,---,0.01,0.00,VWS V14.00,2013-03-02 02:13:00,
2013-03-01 21:18:00,28.9,25.0,29.97,NE,40,0.0,5.0,85,0.00,,---,0.01,0.00,VWS V14.00,2013-03-02 02:18:00,
2013-03-01 21:23:00,28.9,25.0,29.97,NNE,15,0.0,5.0,85,0.00,,---,0.01,0.00,VWS V14.00,2013-03-02 02:23:00,
2013-03-01 21:28:00,28.8,24.9,29.97,NNE,17,1.0,5.0,85,0.00,,---,0.01,0.00,VWS V14.00,2013-03-02 02:28:00,
2013-03-01 21:30:00,28.7,25.0,29.97,NNW,328,1.0,6.0,86,0.00,,---,0.01,0.00,VWS V14.00,2013-03-02 02:30:00,
2013-03-01 21:33:00,28.8,24.9,29.97,NNW,345,0.0,2.0,85,0.00,,---,0.01,0.00,VWS V14.00,2013-03-02 02:33:00,
2013-03-01 21:38:00,28.8,24.9,29.97,NNE,28,0.0,3.0,85,0.00,,---,0.01,0.00,VWS V14.00,2013-03-02 02:38:00,
2013-03-01 21:43:00,28.8,24.9,29.97,NNE,28,0.0,3.0,85,0.00,,---,0.01,0.00,VWS V14.00,2013-03-02 02:43:00,
2013-03-01 21:48:00,28.8,24.9,29.97,NNE,28,0.0,3.0,85,0.00,,---,0.01,0.00,VWS V14.00,2013-03-02 02:48:00,
2013-03-01 21:53:00,28.8,25.1,29.97,NNE,28,0.0,3.0,86,0.00,,---,0.01,0.00,VWS V14.00,2013-03-02 02:53:00,
2013-03-01 21:58:00,28.8,24.9,29.97,NNE,30,0.0,3.0,85,0.00,,---,0.01,0.00,VWS V14.00,2013-03-02 02:58:00,
2013-03-01 22:00:00,28.3,24.7,29.97,NNW,340,2.0,6.0,86,0.00,,---,0.01,0.00,VWS V14.00,2013-03-02 03:00:00,
2013-03-01 22:03:00,28.8,25.1,29.97,NNE,30,0.0,2.0,86,0.00,,---,0.01,0.00,VWS V14.00,2013-03-02 03:03:00,
2013-03-01 22:08:00,28.8,25.1,29.97,NNW,333,6.0,6.0,86,0.00,,---,0.01,0.00,VWS V14.00,2013-03-02 03:08:00,
2013-03-01 22:13:00,28.8,24.9,29.97,NNW,329,1.0,6.0,85,0.00,,---,0.01,0.00,VWS V14.00,2013-03-02 03:13:00,
2013-03-01 22:18:00,28.8,25.1,29.97,NNW,347,0.0,6.0,86,0.00,,---,0.01,0.00,VWS V14.00,2013-03-02 03:18:00,
2013-03-01 22:23:00,28.8,25.1,29.97,NNW,340,2.0,6.0,86,0.00,,---,0.01,0.00,VWS V14.00,2013-03-02 03:23:00,
2013-03-01 22:28:00,28.7,25.0,29.97,NW,306,2.0,6.0,86,0.00,,---,0.01,0.00,VWS V14.00,2013-03-02 03:28:00,
2013-03-01 22:30:00,28.2,24.6,29.97,NNW,341,0.0,7.0,86,0.00,,---,0.01,0.00,VWS V14.00,2013-03-02 03:30:00,
2013-03-01 22:33:00,28.6,25.0,29.97,NNW,340,2.0,6.0,86,0.00,,---,0.01,0.00,VWS V14.00,2013-03-02 03:33:00,
2013-03-01 22:38:00,28.5,25.1,29.97,NNW,344,0.0,6.0,87,0.00,,---,0.01,0.00,VWS V14.00,2013-03-02 03:38:00,
2013-03-01 22:43:00,28.4,25.0,29.97,NNW,335,1.0,6.0,87,0.00,,---,0.01,0.00,VWS V14.00,2013-03-02 03:43:00,
2013-03-01 22:48:00,28.4,24.8,29.97,NNW,348,0.0,6.0,86,0.00,,---,0.01,0.00,VWS V14.00,2013-03-02 03:48:00,
2013-03-01 22:53:00,28.4,24.8,29.97,NW,321,2.0,6.0,86,0.00,,---,0.01,0.00,VWS V14.00,2013-03-02 03:53:00,
2013-03-01 22:58:00,28.3,24.7,29.97,NW,321,1.0,6.0,86,0.00,,---,0.01,0.00,VWS V14.00,2013-03-02 03:58:00,
2013-03-01 23:00:00,28.0,24.4,29.96,NNE,29,0.0,7.0,86,0.00,,---,0.00,0.00,VWS V14.00,2013-03-02 04:00:00,
2013-03-01 23:03:00,28.3,24.7,29.97,WNW,302,2.0,4.0,86,0.00,,---,0.01,0.00,VWS V14.00,2013-03-02 04:03:00,
2013-03-01 23:08:00,28.2,24.6,29.97,NW,315,2.0,5.0,86,0.00,,---,0.01,0.00,VWS V14.00,2013-03-02 04:08:00,
2013-03-01 23:13:00,28.2,24.6,29.97,NW,307,0.0,5.0,86,0.00,,---,0.01,0.00,VWS V14.00,2013-03-02 04:13:00,
2013-03-01 23:18:00,28.2,24.6,29.97,NNW,340,2.0,6.0,86,0.00,,---,0.01,0.00,VWS V14.00,2013-03-02 04:18:00,
2013-03-01 23:23:00,28.2,24.6,29.97,North,355,5.0,7.0,86,0.00,,---,0.01,0.00,VWS V14.00,2013-03-02 04:23:00,
2013-03-01 23:28:00,28.2,24.6,29.97,WNW,301,2.0,7.0,86,0.00,,---,0.01,0.00,VWS V14.00,2013-03-02 04:28:00,
2013-03-01 23:30:00,27.8,23.3,29.96,North,355,4.0,7.0,83,0.00,,---,0.00,0.00,VWS V14.00,2013-03-02 04:30:00,
2013-03-01 23:33:00,28.2,24.6,29.97,North,350,0.0,4.0,86,0.00,,---,0.01,0.00,VWS V14.00,2013-03-02 04:33:00,
2013-03-01 23:38:00,28.1,24.2,29.97,NNW,346,5.0,7.0,85,0.00,,---,0.01,0.00,VWS V14.00,2013-03-02 04:38:00,
2013-03-01 23:43:00,28.2,24.6,29.97,NNW,346,1.0,7.0,86,0.00,,---,0.01,0.00,VWS V14.00,2013-03-02 04:43:00,
2013-03-01 23:48:00,28.1,24.5,29.97,North,355,0.0,7.0,86,0.00,,---,0.01,0.00,VWS V14.00,2013-03-02 04:48:00,
2013-03-01 23:54:00,28.1,24.5,29.97,NNE,14,1.0,7.0,86,0.00,,---,0.01,0.00,VWS V14.00,2013-03-02 04:54:00,
2013-03-01 23:59:00,28.1,24.5,29.96,North,349,4.0,7.0,86,0.00,,---,0.01,0.00,VWS V14.00,2013-03-02 04:59:00,